createdAt,value
2023-03-26T00:02:14.064Z,96449.94
2023-03-26T00:05:02.296Z,96458.72
2023-03-26T00:07:49.137Z,96458.94
2023-03-26T00:10:37.830Z,96462.00
2023-03-26T00:13:24.662Z,96462.81
2023-03-26T00:16:13.831Z,96472.03
2023-03-26T00:19:02.042Z,96472.03
2023-03-26T00:21:48.926Z,96480.44
2023-03-26T00:24:37.382Z,96473.47
2023-03-26T00:27:25.469Z,96480.84
2023-03-26T00:30:12.516Z,96481.84
2023-03-26T00:32:59.446Z,96485.75
2023-03-26T00:35:47.387Z,96486.75
2023-03-26T00:38:38.722Z,96482.47
2023-03-26T00:41:26.948Z,96469.56
2023-03-26T00:44:14.002Z,96474.91
2023-03-26T00:47:00.954Z,96479.63
2023-03-26T00:49:48.790Z,96469.16
2023-03-26T00:52:36.184Z,96475.72
2023-03-26T00:55:23.436Z,96478.78
2023-03-26T00:58:10.940Z,96476.31
2023-03-26T01:00:59.715Z,96474.91
2023-03-26T01:04:00.848Z,96483.06
2023-03-26T01:06:55.562Z,96491.44
2023-03-26T01:09:50.236Z,96491.66
2023-03-26T01:12:37.160Z,96489.22
2023-03-26T01:15:29.826Z,96489.41
2023-03-26T01:18:26.331Z,96480.81
2023-03-26T01:21:14.540Z,96485.31
2023-03-26T01:24:02.878Z,96482.03
2023-03-26T01:27:04.413Z,96481.63
2023-03-26T01:30:07.364Z,96476.72
2023-03-26T01:33:14.578Z,96474.44
2023-03-26T01:36:06.502Z,96470.97
2023-03-26T01:39:07.999Z,96473.84
2023-03-26T01:41:58.483Z,96462.59
2023-03-26T01:44:55.874Z,96459.09
2023-03-26T01:47:44.204Z,96453.16
2023-03-26T01:50:31.340Z,96455.22
2023-03-26T01:53:18.451Z,96458.91
2023-03-26T01:56:23.230Z,96459.91
2023-03-26T01:59:41.325Z,96461.16
2023-03-26T02:03:06.115Z,96464.81
2023-03-26T02:05:58.406Z,96457.84
2023-03-26T02:08:54.194Z,96446.81
2023-03-26T02:11:41.661Z,96456.81
2023-03-26T02:14:30.339Z,96447.22
2023-03-26T02:17:19.125Z,96446.56
2023-03-26T02:20:12.299Z,96443.06
2023-03-26T02:22:59.913Z,96443.69
2023-03-26T02:25:47.381Z,96441.66
2023-03-26T02:28:34.960Z,96449.81
2023-03-26T02:31:26.293Z,96435.09
2023-03-26T02:34:13.317Z,96437.94
2023-03-26T02:37:00.873Z,96434.69
2023-03-26T02:39:47.721Z,96442.66
2023-03-26T02:42:34.531Z,96443.66
2023-03-26T02:45:22.110Z,96435.69
2023-03-26T02:48:08.958Z,96429.78
2023-03-26T02:50:55.848Z,96428.31
2023-03-26T02:53:42.732Z,96417.69
2023-03-26T02:56:29.814Z,96405.44
2023-03-26T02:59:16.933Z,96418.72
2023-03-26T03:02:04.059Z,96417.91
2023-03-26T03:04:51.991Z,96414.44
2023-03-26T03:07:39.052Z,96413.59
2023-03-26T03:10:27.617Z,96409.53
2023-03-26T03:13:15.009Z,96409.69
2023-03-26T03:16:01.896Z,96405.63
2023-03-26T03:18:54.583Z,96401.13
2023-03-26T03:21:42.023Z,96397.84
2023-03-26T03:24:28.987Z,96397.44
2023-03-26T03:27:16.095Z,96387.81
2023-03-26T03:30:03.083Z,96390.47
2023-03-26T03:32:49.937Z,96390.66
2023-03-26T03:35:38.356Z,96389.03
2023-03-26T03:38:25.275Z,96389.84
2023-03-26T03:41:12.398Z,96390.88
2023-03-26T03:44:01.498Z,96385.78
2023-03-26T03:46:49.285Z,96375.16
2023-03-26T03:49:36.130Z,96377.81
2023-03-26T03:52:23.056Z,96379.22
2023-03-26T03:55:10.630Z,96376.75
2023-03-26T03:57:59.920Z,96375.94
2023-03-26T04:00:48.693Z,96376.16
2023-03-26T04:03:38.808Z,96371.44
2023-03-26T04:06:26.125Z,96372.88
2023-03-26T04:09:12.981Z,96380.03
2023-03-26T04:11:59.891Z,96370.59
2023-03-26T04:14:46.804Z,96368.16
2023-03-26T04:17:33.820Z,96363.25
2023-03-26T04:20:20.956Z,96357.94
2023-03-26T04:23:08.412Z,96361.81
2023-03-26T04:25:56.220Z,96360.34
2023-03-26T04:28:46.510Z,96358.72
2023-03-26T04:31:34.185Z,96369.34
2023-03-26T04:34:24.205Z,96366.28
2023-03-26T04:37:18.987Z,96357.88
2023-03-26T04:40:30.595Z,96367.69
2023-03-26T04:43:18.160Z,96359.09
2023-03-26T04:46:05.298Z,96352.38
2023-03-26T04:48:53.050Z,96350.72
2023-03-26T04:51:42.034Z,96352.53
2023-03-26T04:54:28.929Z,96351.13
2023-03-26T04:57:23.806Z,96348.66
2023-03-26T05:00:18.897Z,96357.66
2023-03-26T05:03:06.260Z,96344.59
2023-03-26T05:05:53.441Z,96349.91
2023-03-26T05:08:41.809Z,96341.28
2023-03-26T05:11:28.792Z,96336.19
2023-03-26T05:14:15.703Z,96331.28
2023-03-26T05:17:05.938Z,96342.91
2023-03-26T05:19:52.860Z,96336.16
2023-03-26T05:22:39.694Z,96336.97
2023-03-26T05:25:26.550Z,96327.41
2023-03-26T05:28:13.458Z,96337.16
2023-03-26T05:31:01.283Z,96333.09
2023-03-26T05:33:48.639Z,96344.53
2023-03-26T05:36:35.570Z,96338.56
2023-03-26T05:39:26.210Z,96321.84
2023-03-26T05:42:13.161Z,96327.38
2023-03-26T05:45:00.007Z,96311.44
2023-03-26T05:47:47.817Z,96319.59
2023-03-26T05:50:34.707Z,96317.13
2023-03-26T05:53:22.463Z,96309.34
2023-03-26T05:56:10.604Z,96307.72
2023-03-26T05:58:57.717Z,96304.06
2023-03-26T06:01:44.782Z,96299.97
2023-03-26T06:04:32.464Z,96306.09
2023-03-26T06:07:19.994Z,96297.72
2023-03-26T06:10:07.331Z,96299.56
2023-03-26T06:12:54.193Z,96300.16
2023-03-26T06:15:41.191Z,96296.06
2023-03-26T06:18:28.339Z,96287.47
2023-03-26T06:21:15.457Z,96286.88
2023-03-26T06:24:02.323Z,96279.72
2023-03-26T06:26:49.195Z,96277.06
2023-03-26T06:29:36.164Z,96279.72
2023-03-26T06:32:23.170Z,96275.44
2023-03-26T06:35:11.171Z,96284.00
2023-03-26T06:37:58.522Z,96272.78
2023-03-26T06:40:45.448Z,96268.47
2023-03-26T06:43:36.213Z,96268.09
2023-03-26T06:46:23.567Z,96259.94
2023-03-26T06:49:10.405Z,96252.59
2023-03-26T06:51:57.835Z,96257.28
2023-03-26T06:54:44.687Z,96252.63
2023-03-26T06:57:31.515Z,96252.22
2023-03-26T07:00:19.700Z,96257.13
2023-03-26T07:03:06.666Z,96252.66
2023-03-26T07:05:53.519Z,96245.28
2023-03-26T07:08:40.359Z,96241.63
2023-03-26T07:11:27.276Z,96244.06
2023-03-26T07:14:14.162Z,96244.06
2023-03-26T07:17:01.213Z,96253.06
2023-03-26T07:19:48.122Z,96235.50
2023-03-26T07:22:35.742Z,96238.13
2023-03-26T07:25:22.844Z,96221.63
2023-03-26T07:28:37.295Z,96223.25
2023-03-26T07:31:48.306Z,96227.75
2023-03-26T07:34:46.437Z,96209.97
2023-03-26T07:38:01.839Z,96204.88
2023-03-26T07:41:06.918Z,96205.88
2023-03-26T07:44:18.561Z,96201.41
2023-03-26T07:47:16.149Z,96193.66
2023-03-26T07:50:04.074Z,96201.41
2023-03-26T07:52:51.133Z,96192.63
2023-03-26T07:55:51.114Z,96192.63
2023-03-26T07:58:46.964Z,96190.81
2023-03-26T08:01:49.565Z,96192.44
2023-03-26T08:04:48.065Z,96181.00
2023-03-26T08:07:39.425Z,96180.78
2023-03-26T08:10:27.993Z,96177.13
2023-03-26T08:13:41.638Z,96163.66
2023-03-26T08:16:40.170Z,96155.69
2023-03-26T08:19:33.174Z,96147.75
2023-03-26T08:22:28.759Z,96143.25
2023-03-26T08:25:17.731Z,96147.53
2023-03-26T08:28:37.885Z,96151.84
2023-03-26T08:31:33.689Z,96138.56
2023-03-26T08:34:20.550Z,96138.56
2023-03-26T08:37:07.804Z,96135.69
2023-03-26T08:39:54.712Z,96137.31
2023-03-26T08:42:56.032Z,96129.38
2023-03-26T08:46:12.040Z,96124.88
2023-03-26T08:49:15.857Z,96124.69
2023-03-26T08:52:31.086Z,96128.16
2023-03-26T08:55:33.070Z,96112.22
2023-03-26T08:58:34.595Z,96119.16
2023-03-26T09:01:30.753Z,96112.00
2023-03-26T09:04:20.364Z,96110.19
2023-03-26T09:07:21.405Z,96104.91
2023-03-26T09:10:35.648Z,96100.41
2023-03-26T09:13:54.589Z,96087.94
2023-03-26T09:17:09.911Z,96079.97
2023-03-26T09:20:24.251Z,96063.25
2023-03-26T09:23:33.023Z,96059.78
2023-03-26T09:27:05.500Z,96051.81
2023-03-26T09:30:20.050Z,96050.78
2023-03-26T09:33:32.890Z,96044.66
2023-03-26T09:36:22.488Z,96047.91
2023-03-26T09:39:27.924Z,96040.78
2023-03-26T09:42:37.250Z,96040.56
2023-03-26T09:45:46.115Z,96034.25
2023-03-26T09:48:42.567Z,96020.97
2023-03-26T09:51:44.641Z,96018.13
2023-03-26T09:55:02.222Z,96017.09
2023-03-26T09:57:58.385Z,96014.44
2023-03-26T10:01:03.868Z,96012.38
2023-03-26T10:03:53.779Z,96003.59
2023-03-26T10:06:47.114Z,96001.56
2023-03-26T10:09:43.803Z,96005.03
2023-03-26T10:12:36.635Z,95991.78
2023-03-26T10:15:43.372Z,95972.16
2023-03-26T10:18:42.280Z,95965.81
2023-03-26T10:21:42.875Z,95984.22
2023-03-26T10:24:38.696Z,95995.63
2023-03-26T10:27:37.680Z,95997.25
2023-03-26T10:30:48.916Z,95991.75
2023-03-26T10:33:59.957Z,95990.72
2023-03-26T10:37:22.258Z,95997.66
2023-03-26T10:40:14.477Z,95999.50
2023-03-26T10:43:29.597Z,95994.00
2023-03-26T10:46:53.913Z,95985.19
2023-03-26T10:49:40.693Z,96000.13
2023-03-26T10:52:34.643Z,95998.06
2023-03-26T10:55:30.674Z,96000.72
2023-03-26T10:58:27.415Z,96000.72
2023-03-26T11:01:42.836Z,95989.09
2023-03-26T11:04:38.645Z,95988.25
2023-03-26T11:08:05.366Z,95986.44
2023-03-26T11:11:01.533Z,95979.28
2023-03-26T11:13:54.408Z,95974.97
2023-03-26T11:16:59.769Z,95977.69
2023-03-26T11:20:02.775Z,95978.50
2023-03-26T11:23:23.557Z,95986.06
2023-03-26T11:26:13.689Z,95983.78
2023-03-26T11:29:31.712Z,95987.25
2023-03-26T11:32:24.655Z,95989.44
2023-03-26T11:35:40.368Z,95985.56
2023-03-26T11:38:37.555Z,95982.91
2023-03-26T11:41:27.108Z,95983.13
2023-03-26T11:44:29.831Z,95977.22
2023-03-26T11:47:23.237Z,95987.03
2023-03-26T11:50:16.726Z,95975.38
2023-03-26T11:53:12.699Z,95974.56
2023-03-26T11:56:04.186Z,95963.13
2023-03-26T11:59:01.067Z,95964.75
2023-03-26T12:01:51.818Z,95965.78
2023-03-26T12:04:41.087Z,95946.16
2023-03-26T12:07:35.037Z,95943.50
2023-03-26T12:10:31.610Z,95921.44
2023-03-26T12:13:28.298Z,95908.19
2023-03-26T12:16:18.805Z,95906.34
2023-03-26T12:19:18.807Z,95901.84
2023-03-26T12:22:06.630Z,95894.09
2023-03-26T12:25:21.309Z,95882.44
2023-03-26T12:28:14.089Z,95879.78
2023-03-26T12:31:02.898Z,95876.13
2023-03-26T12:34:16.755Z,95877.94
2023-03-26T12:37:05.543Z,95873.47
2023-03-26T12:40:12.238Z,95870.81
2023-03-26T12:44:48.504Z,95856.69
2023-03-26T12:47:56.875Z,95861.00
2023-03-26T12:49:39.465Z,95867.13
2023-03-26T12:52:48.144Z,95874.28
2023-03-26T12:55:42.846Z,95863.44
2023-03-26T12:58:58.416Z,95856.50
2023-03-26T13:02:08.420Z,95848.53
2023-03-26T13:05:05.723Z,95847.50
2023-03-26T13:08:18.383Z,95847.72
2023-03-26T13:11:28.361Z,95853.03
2023-03-26T13:14:18.064Z,95845.28
2023-03-26T13:17:21.770Z,95844.25
2023-03-26T13:20:27.506Z,95828.34
2023-03-26T13:23:23.151Z,95819.34
2023-03-26T13:26:19.645Z,95811.38
2023-03-26T13:29:28.055Z,95810.34
2023-03-26T13:32:24.234Z,95804.38
2023-03-26T13:35:45.175Z,95799.91
2023-03-26T13:38:43.774Z,95808.88
2023-03-26T13:42:04.716Z,95797.59
2023-03-26T13:45:24.766Z,95804.13
2023-03-26T13:48:19.333Z,95798.19
2023-03-26T13:51:19.743Z,95793.25
2023-03-26T13:54:15.761Z,95794.66
2023-03-26T13:57:10.159Z,95783.59
2023-03-26T14:00:02.428Z,95785.25
2023-03-26T14:02:56.333Z,95781.53
2023-03-26T14:05:47.436Z,95778.88
2023-03-26T14:08:41.874Z,95795.63
2023-03-26T14:11:40.816Z,95790.31
2023-03-26T14:14:43.495Z,95795.63
2023-03-26T14:17:34.536Z,95798.28
2023-03-26T14:20:50.049Z,95762.72
2023-03-26T14:23:49.020Z,95757.63
2023-03-26T14:26:54.944Z,95750.28
2023-03-26T14:30:03.911Z,95746.59
2023-03-26T14:32:50.802Z,95735.97
2023-03-26T14:35:54.867Z,95733.06
2023-03-26T14:39:01.303Z,95727.56
2023-03-26T14:41:51.758Z,95722.81
2023-03-26T14:45:12.699Z,95714.66
2023-03-26T14:48:36.721Z,95714.66
2023-03-26T14:51:44.573Z,95710.97
2023-03-26T14:54:34.062Z,95714.41
2023-03-26T14:57:49.490Z,95718.69
2023-03-26T15:01:06.763Z,95702.56
2023-03-26T15:04:24.842Z,95703.13
2023-03-26T15:07:37.177Z,95707.22
2023-03-26T15:10:36.294Z,95698.19
2023-03-26T15:13:23.034Z,95703.50
2023-03-26T15:16:55.097Z,95711.88
2023-03-26T15:20:13.074Z,95706.56
2023-03-26T15:23:24.130Z,95699.22
2023-03-26T15:26:30.589Z,95698.53
2023-03-26T15:29:56.782Z,95701.81
2023-03-26T15:32:57.158Z,95697.06
2023-03-26T15:35:59.218Z,95688.28
2023-03-26T15:39:06.599Z,95701.38
2023-03-26T15:41:56.320Z,95680.09
2023-03-26T15:44:53.999Z,95678.25
2023-03-26T15:47:51.368Z,95686.00
2023-03-26T15:51:03.202Z,95690.28
2023-03-26T15:53:57.870Z,95690.28
2023-03-26T15:57:07.217Z,95684.16
2023-03-26T16:00:32.333Z,95684.75
2023-03-26T16:03:25.520Z,95691.91
2023-03-26T16:06:20.579Z,95690.06
2023-03-26T16:09:32.503Z,95686.38
2023-03-26T16:13:00.440Z,95694.13
2023-03-26T16:16:02.547Z,95695.16
2023-03-26T16:19:05.785Z,95699.66
2023-03-26T16:21:57.699Z,95694.13
2023-03-26T16:24:47.696Z,95686.16
2023-03-26T16:27:35.264Z,95684.88
2023-03-26T16:30:31.900Z,95693.47
2023-03-26T16:33:21.179Z,95704.69
2023-03-26T16:36:18.426Z,95714.88
2023-03-26T16:39:05.578Z,95715.47
2023-03-26T16:42:06.325Z,95705.41
2023-03-26T16:45:06.833Z,95706.22
2023-03-26T16:48:15.693Z,95699.09
2023-03-26T16:51:24.029Z,95687.63
2023-03-26T16:54:28.067Z,95702.56
2023-03-26T16:57:29.326Z,95705.41
2023-03-26T17:00:27.761Z,95692.13
2023-03-26T17:03:24.294Z,95686.81
2023-03-26T17:06:25.505Z,95683.94
2023-03-26T17:09:41.394Z,95692.72
2023-03-26T17:12:34.555Z,95700.72
2023-03-26T17:15:29.040Z,95692.50
2023-03-26T17:18:25.698Z,95694.34
2023-03-26T17:21:17.219Z,95691.69
2023-03-26T17:24:22.256Z,95684.75
2023-03-26T17:27:28.222Z,95678.41
2023-03-26T17:30:39.898Z,95666.34
2023-03-26T17:33:26.880Z,95662.88
2023-03-26T17:36:20.103Z,95672.13
2023-03-26T17:39:51.471Z,95669.47
2023-03-26T17:42:38.394Z,95684.81
2023-03-26T17:45:30.470Z,95675.22
2023-03-26T17:48:21.654Z,95672.56
2023-03-26T17:51:20.744Z,95678.69
2023-03-26T17:54:15.300Z,95686.06
2023-03-26T17:57:18.879Z,95681.78
2023-03-26T18:00:10.532Z,95681.78
2023-03-26T18:03:01.409Z,95670.34
2023-03-26T18:05:55.550Z,95674.06
2023-03-26T18:09:31.485Z,95674.06
2023-03-26T18:12:38.466Z,95676.34
2023-03-26T18:15:45.024Z,95679.00
2023-03-26T18:18:58.903Z,95685.56
2023-03-26T18:21:51.192Z,95686.00
2023-03-26T18:24:39.484Z,95684.16
2023-03-26T18:27:33.541Z,95670.84
2023-03-26T18:30:23.433Z,95673.75
2023-03-26T18:33:15.555Z,95672.13
2023-03-26T18:36:03.725Z,95683.56
2023-03-26T18:38:50.603Z,95680.09
2023-03-26T18:41:39.382Z,95680.09
2023-03-26T18:44:27.009Z,95677.44
2023-03-26T18:47:15.160Z,95672.13
2023-03-26T18:50:02.360Z,95679.25
2023-03-26T18:52:49.264Z,95671.53
2023-03-26T18:55:39.545Z,95678.47
2023-03-26T18:58:34.535Z,95671.53
2023-03-26T19:01:25.842Z,95675.00
2023-03-26T19:04:13.239Z,95670.47
2023-03-26T19:07:01.613Z,95668.88
2023-03-26T19:09:48.717Z,95661.13
2023-03-26T19:12:37.373Z,95658.47
2023-03-26T19:15:26.535Z,95662.38
2023-03-26T19:18:18.237Z,95670.94
2023-03-26T19:21:05.472Z,95663.19
2023-03-26T19:23:52.768Z,95666.06
2023-03-26T19:26:39.851Z,95675.06
2023-03-26T19:29:32.165Z,95675.88
2023-03-26T19:32:21.988Z,95681.19
2023-03-26T19:35:19.962Z,95675.88
2023-03-26T19:38:27.948Z,95674.25
2023-03-26T19:41:24.301Z,95674.25
2023-03-26T19:44:25.790Z,95675.28
2023-03-26T19:47:39.012Z,95674.47
2023-03-26T19:50:33.590Z,95671.03
2023-03-26T19:53:25.530Z,95666.50
2023-03-26T19:56:14.604Z,95676.53
2023-03-26T19:59:02.312Z,95669.38
2023-03-26T20:01:49.240Z,95668.56
2023-03-26T20:04:36.116Z,95660.78
2023-03-26T20:07:34.985Z,95668.75
2023-03-26T20:10:23.871Z,95673.69
2023-03-26T20:13:19.781Z,95675.75
2023-03-26T20:16:27.656Z,95673.53
2023-03-26T20:19:15.359Z,95674.56
2023-03-26T20:22:02.490Z,95691.31
2023-03-26T20:24:50.766Z,95689.69
2023-03-26T20:27:37.580Z,95680.31
2023-03-26T20:30:36.801Z,95697.28
2023-03-26T20:33:25.817Z,95697.53
2023-03-26T20:36:13.690Z,95697.53
2023-03-26T20:39:00.832Z,95695.88
2023-03-26T20:41:49.954Z,95696.09
2023-03-26T20:44:36.970Z,95703.47
2023-03-26T20:47:24.187Z,95693.06
2023-03-26T20:50:14.072Z,95705.56
2023-03-26T20:53:02.436Z,95712.72
2023-03-26T20:55:51.625Z,95712.72
2023-03-26T20:58:40.016Z,95713.94
2023-03-26T21:01:27.759Z,95711.28
2023-03-26T21:04:16.184Z,95709.69
2023-03-26T21:07:15.067Z,95712.75
2023-03-26T21:10:05.453Z,95707.66
2023-03-26T21:13:12.872Z,95722.78
2023-03-26T21:16:00.991Z,95718.50
2023-03-26T21:18:48.667Z,95724.00
2023-03-26T21:21:59.134Z,95715.47
2023-03-26T21:25:08.272Z,95719.34
2023-03-26T21:28:01.337Z,95714.03
2023-03-26T21:30:48.421Z,95709.97
2023-03-26T21:33:35.223Z,95713.25
2023-03-26T21:36:23.076Z,95714.28
2023-03-26T21:39:11.134Z,95714.28
2023-03-26T21:42:05.291Z,95723.25
2023-03-26T21:44:52.834Z,95725.91
2023-03-26T21:47:41.195Z,95727.75
2023-03-26T21:50:28.368Z,95724.09
2023-03-26T21:53:15.697Z,95726.13
2023-03-26T21:56:13.483Z,95725.56
2023-03-26T21:59:11.321Z,95737.78
2023-03-26T22:02:06.645Z,95733.53
2023-03-26T22:05:13.579Z,95734.75
2023-03-26T22:08:02.895Z,95734.94
2023-03-26T22:10:49.730Z,95744.75
2023-03-26T22:13:38.493Z,95734.94
2023-03-26T22:16:25.708Z,95749.06
2023-03-26T22:19:13.731Z,95736.22
2023-03-26T22:22:00.914Z,95743.38
2023-03-26T22:24:47.869Z,95742.75
2023-03-26T22:27:34.718Z,95745.66
2023-03-26T22:30:32.855Z,95748.28
2023-03-26T22:33:20.052Z,95746.88
2023-03-26T22:36:22.626Z,95738.09
2023-03-26T22:39:10.695Z,95749.72
2023-03-26T22:41:57.608Z,95746.25
2023-03-26T22:44:44.442Z,95744.66
2023-03-26T22:47:33.626Z,95742.22
2023-03-26T22:50:20.680Z,95750.19
2023-03-26T22:53:07.664Z,95738.72
2023-03-26T22:55:54.556Z,95739.56
2023-03-26T22:58:42.235Z,95738.13
2023-03-26T23:01:29.760Z,95736.53
2023-03-26T23:04:31.710Z,95741.81
2023-03-26T23:07:19.264Z,95746.31
2023-03-26T23:10:06.920Z,95746.09
2023-03-26T23:12:53.864Z,95738.34
2023-03-26T23:15:40.724Z,95745.72
2023-03-26T23:18:28.875Z,95749.41
2023-03-26T23:21:18.508Z,95740.59
2023-03-26T23:24:05.708Z,95745.91
2023-03-26T23:26:53.261Z,95751.44
2023-03-26T23:29:40.149Z,95758.78
2023-03-26T23:32:28.157Z,95762.47
2023-03-26T23:35:15.106Z,95755.56
2023-03-26T23:38:02.259Z,95761.09
2023-03-26T23:40:56.995Z,95760.25
2023-03-26T23:43:53.513Z,95762.31
2023-03-26T23:46:42.790Z,95754.56
2023-03-26T23:49:29.631Z,95762.50
2023-03-26T23:52:16.696Z,95762.50
2023-03-26T23:55:03.786Z,95749.47
2023-03-26T23:57:50.654Z,95751.31
